Carnation, Washington
Current Conditions -  °F | °C
As of 2:53 AM on Monday 22 Dec 2014 (Local Time) from KRNT Reporting Station
Broken Clouds Broken Clouds  
Wind Chill: 46°   Ceiling: 3700
Heat Index: 46°   Visibility: 8mi
Dew Point: 44°   Wind: 0mph
Humidity: 93%   Direction: NA
Pressure: 30.18"   Gusts: NA
Location:  47.65°N, 121.91°W
Report Text: KRNT 221053Z AUTO 00000KT 8SM FEW028 BKN037 BKN045 08/07 A3018 RMK AO2 SLP223 T00780067 $
Loading
Personal Weather Stations






























Interactive Weather Map New forecast layout! Learn more

10-Day Weather Forecast

Advertisements
Track Severe Weather on mobile